createdAt,value
2018-12-30T00:00:21.979Z,35.79
2018-12-30T00:02:39.387Z,35.53
2018-12-30T00:04:55.513Z,36.09
2018-12-30T00:07:10.467Z,36.33
2018-12-30T00:09:31.651Z,36.61
2018-12-30T00:11:52.997Z,36.04
2018-12-30T00:14:11.409Z,36.52
2018-12-30T00:16:25.286Z,36.69
2018-12-30T00:18:47.481Z,37.21
2018-12-30T00:20:59.250Z,36.94
2018-12-30T00:23:08.894Z,35.95
2018-12-30T00:25:17.524Z,37.05
2018-12-30T00:27:26.225Z,36.61
2018-12-30T00:29:34.201Z,37.13
2018-12-30T00:31:41.367Z,36.66
2018-12-30T00:33:52.232Z,35.30
2018-12-30T00:36:00.250Z,36.81
2018-12-30T00:38:07.540Z,35.56
2018-12-30T00:40:16.897Z,35.84
2018-12-30T00:42:25.592Z,36.13
2018-12-30T00:44:34.618Z,36.79
2018-12-30T00:46:42.421Z,36.23
2018-12-30T00:48:51.274Z,36.59
2018-12-30T00:51:00.186Z,35.95
2018-12-30T00:53:10.871Z,37.44
2018-12-30T00:55:18.897Z,37.27
2018-12-30T00:57:27.656Z,36.57
2018-12-30T00:59:36.296Z,36.93
2018-12-30T01:01:44.413Z,35.92
2018-12-30T01:03:52.751Z,34.61
2018-12-30T01:06:01.233Z,36.15
2018-12-30T01:08:10.426Z,35.56
2018-12-30T01:10:18.826Z,36.38
2018-12-30T01:12:28.433Z,35.95
2018-12-30T01:14:36.640Z,36.02
2018-12-30T01:16:45.485Z,35.86
2018-12-30T01:18:53.752Z,35.71
2018-12-30T01:21:01.805Z,35.57
2018-12-30T01:23:09.872Z,35.74
2018-12-30T01:25:19.255Z,35.97
2018-12-30T01:27:28.627Z,35.47
2018-12-30T01:29:41.512Z,36.11
2018-12-30T01:31:50.211Z,34.39
2018-12-30T01:33:58.477Z,35.58
2018-12-30T01:36:06.915Z,35.65
2018-12-30T01:38:15.576Z,35.87
2018-12-30T01:40:29.525Z,35.84
2018-12-30T01:42:41.557Z,35.89
2018-12-30T01:44:50.331Z,35.40
2018-12-30T01:46:59.785Z,35.63
2018-12-30T01:49:08.672Z,35.90
2018-12-30T01:51:16.662Z,35.57
2018-12-30T01:53:23.772Z,36.12
2018-12-30T01:55:41.169Z,36.05
2018-12-30T01:57:52.013Z,35.63
2018-12-30T02:00:02.313Z,35.45
2018-12-30T02:02:13.971Z,35.90
2018-12-30T02:04:22.108Z,35.05
2018-12-30T02:06:31.218Z,35.85
2018-12-30T02:08:42.068Z,35.81
2018-12-30T02:10:53.716Z,35.97
2018-12-30T02:13:03.276Z,35.27
2018-12-30T02:15:15.039Z,35.95
2018-12-30T02:17:23.065Z,35.53
2018-12-30T02:19:34.078Z,35.67
2018-12-30T02:21:41.981Z,35.08
2018-12-30T02:23:49.649Z,34.77
2018-12-30T02:25:59.004Z,34.86
2018-12-30T02:28:07.804Z,35.65
2018-12-30T02:30:17.049Z,34.75
2018-12-30T02:32:24.953Z,34.86
2018-12-30T02:34:33.610Z,34.97
2018-12-30T02:36:43.485Z,35.40
2018-12-30T02:38:55.667Z,34.31
2018-12-30T02:43:18.614Z,34.05
2018-12-30T02:45:27.637Z,34.62
2018-12-30T02:47:39.379Z,35.05
2018-12-30T02:49:52.135Z,35.24
2018-12-30T02:52:05.182Z,35.52
2018-12-30T02:54:13.097Z,34.88
2018-12-30T02:56:21.815Z,35.23
2018-12-30T02:58:30.678Z,35.21
2018-12-30T03:00:45.092Z,34.23
2018-12-30T03:02:52.953Z,33.31
2018-12-30T03:05:02.562Z,33.50
2018-12-30T03:07:12.602Z,34.46
2018-12-30T03:09:22.174Z,34.80
2018-12-30T03:11:32.363Z,34.46
2018-12-30T03:13:42.215Z,34.68
2018-12-30T03:15:50.411Z,34.53
2018-12-30T03:18:00.695Z,34.88
2018-12-30T03:20:09.483Z,35.15
2018-12-30T03:22:20.148Z,35.32
2018-12-30T03:24:32.170Z,34.86
2018-12-30T03:26:40.694Z,34.44
2018-12-30T03:28:49.058Z,34.83
2018-12-30T03:30:57.110Z,35.59
2018-12-30T03:33:06.261Z,35.74
2018-12-30T03:35:17.470Z,35.47
2018-12-30T03:37:27.210Z,35.81
2018-12-30T03:39:36.659Z,35.54
2018-12-30T03:41:46.456Z,35.95
2018-12-30T03:43:55.458Z,35.95
2018-12-30T03:46:03.652Z,36.11
2018-12-30T03:48:15.737Z,36.42
2018-12-30T03:50:32.232Z,36.16
2018-12-30T03:52:42.617Z,35.79
2018-12-30T03:54:56.058Z,36.33
2018-12-30T03:57:06.736Z,36.37
2018-12-30T03:59:26.167Z,36.70
2018-12-30T04:01:41.858Z,36.38
2018-12-30T04:03:49.045Z,35.55
2018-12-30T04:05:59.341Z,34.99
2018-12-30T04:08:07.240Z,34.55
2018-12-30T04:10:16.934Z,34.05
2018-12-30T04:12:27.566Z,33.53
2018-12-30T04:14:37.094Z,33.42
2018-12-30T04:16:51.431Z,33.20
2018-12-30T04:19:00.588Z,34.24
2018-12-30T04:21:11.107Z,34.86
2018-12-30T04:23:18.568Z,34.04
2018-12-30T04:25:30.066Z,35.06
2018-12-30T04:27:38.853Z,35.32
2018-12-30T04:29:49.612Z,35.31
2018-12-30T04:31:58.566Z,35.42
2018-12-30T04:34:09.694Z,35.33
2018-12-30T04:36:18.593Z,35.14
2018-12-30T04:38:28.434Z,35.59
2018-12-30T04:40:38.373Z,35.60
2018-12-30T04:42:49.409Z,35.59
2018-12-30T04:45:00.612Z,35.54
2018-12-30T04:47:11.403Z,35.40
2018-12-30T04:49:19.119Z,35.36
2018-12-30T04:51:28.973Z,35.31
2018-12-30T04:53:37.171Z,35.55
2018-12-30T04:55:48.551Z,35.90
2018-12-30T04:58:05.046Z,35.87
2018-12-30T05:00:15.041Z,36.10
2018-12-30T05:04:56.365Z,35.29
2018-12-30T05:07:05.645Z,34.33
2018-12-30T05:09:14.297Z,33.95
2018-12-30T05:11:23.789Z,34.09
2018-12-30T05:13:32.375Z,34.01
2018-12-30T05:15:41.549Z,32.69
2018-12-30T05:17:49.808Z,33.24
2018-12-30T05:19:57.844Z,33.75
2018-12-30T05:22:08.445Z,34.55
2018-12-30T05:24:19.014Z,34.42
2018-12-30T05:26:27.752Z,34.74
2018-12-30T05:28:36.477Z,34.34
2018-12-30T05:30:47.513Z,34.63
2018-12-30T05:32:57.608Z,35.02
2018-12-30T05:35:05.800Z,35.07
2018-12-30T05:37:16.758Z,34.57
2018-12-30T05:39:25.800Z,35.07
2018-12-30T05:41:35.236Z,34.54
2018-12-30T05:43:43.283Z,35.30
2018-12-30T05:45:54.703Z,35.14
2018-12-30T05:48:05.520Z,35.44
2018-12-30T05:50:14.560Z,34.84
2018-12-30T05:52:24.447Z,34.30
2018-12-30T05:54:38.712Z,34.21
2018-12-30T05:56:49.071Z,33.63
2018-12-30T05:58:59.347Z,33.14
2018-12-30T06:01:14.696Z,32.73
2018-12-30T06:03:25.186Z,32.58
2018-12-30T06:05:37.285Z,34.60
2018-12-30T06:07:51.850Z,33.77
2018-12-30T06:09:59.465Z,34.45
2018-12-30T06:12:20.610Z,34.46
2018-12-30T06:14:36.082Z,34.48
2018-12-30T06:16:43.448Z,34.60
2018-12-30T06:19:00.535Z,34.69
2018-12-30T06:21:11.429Z,34.34
2018-12-30T06:23:19.250Z,34.75
2018-12-30T06:25:27.234Z,34.55
2018-12-30T06:27:35.182Z,34.84
2018-12-30T06:29:55.385Z,34.66
2018-12-30T06:32:03.054Z,35.01
2018-12-30T06:34:12.738Z,35.24
2018-12-30T06:36:23.681Z,35.28
2018-12-30T06:38:36.646Z,35.04
2018-12-30T06:40:43.885Z,35.05
2018-12-30T06:42:51.079Z,35.05
2018-12-30T06:44:58.118Z,34.25
2018-12-30T06:47:16.409Z,34.12
2018-12-30T06:49:40.071Z,34.65
2018-12-30T06:51:50.405Z,34.80
2018-12-30T06:53:59.166Z,32.92
2018-12-30T06:56:06.616Z,33.74
2018-12-30T06:58:13.879Z,34.43
2018-12-30T07:00:21.182Z,34.54
2018-12-30T07:02:29.331Z,35.28
2018-12-30T07:04:42.299Z,35.00
2018-12-30T07:06:51.126Z,35.07
2018-12-30T07:09:03.082Z,34.47
2018-12-30T07:11:21.573Z,35.18
2018-12-30T07:13:28.787Z,35.12
2018-12-30T07:15:36.084Z,35.31
2018-12-30T07:17:43.518Z,35.10
2018-12-30T07:19:57.593Z,34.79
2018-12-30T07:22:14.260Z,35.05
2018-12-30T07:24:22.808Z,34.66
2018-12-30T07:26:30.956Z,34.60
2018-12-30T07:28:41.948Z,34.28
2018-12-30T07:30:50.071Z,34.76
2018-12-30T07:32:57.259Z,34.01
2018-12-30T07:35:10.184Z,33.47
2018-12-30T07:37:24.025Z,33.71
2018-12-30T07:39:31.447Z,33.70
2018-12-30T07:41:38.745Z,34.03
2018-12-30T07:44:04.545Z,34.54
2018-12-30T07:46:18.912Z,34.13
2018-12-30T07:48:25.330Z,34.50
2018-12-30T07:50:32.795Z,34.46
2018-12-30T07:52:40.195Z,34.25
2018-12-30T07:54:47.267Z,34.60
2018-12-30T07:56:54.538Z,34.92
2018-12-30T07:59:07.167Z,34.96
2018-12-30T08:01:14.706Z,34.82
2018-12-30T08:03:22.198Z,35.15
2018-12-30T08:05:29.303Z,35.21
2018-12-30T08:07:36.325Z,35.03
2018-12-30T08:09:43.556Z,34.64
2018-12-30T08:11:50.644Z,34.07
2018-12-30T08:13:57.893Z,34.41
2018-12-30T08:16:05.425Z,34.50
2018-12-30T08:18:12.576Z,33.68
2018-12-30T08:20:19.628Z,33.15
2018-12-30T08:22:26.743Z,33.33
2018-12-30T08:26:47.968Z,33.16
2018-12-30T08:28:55.193Z,33.79
2018-12-30T08:31:02.295Z,33.56
2018-12-30T08:33:09.570Z,33.66
2018-12-30T08:35:16.664Z,34.28
2018-12-30T08:37:23.790Z,34.07
2018-12-30T08:39:30.923Z,34.10
2018-12-30T08:41:38.014Z,34.38
2018-12-30T08:43:45.112Z,34.39
2018-12-30T08:45:52.383Z,34.35
2018-12-30T08:48:00.003Z,34.87
2018-12-30T08:50:07.208Z,34.82
2018-12-30T08:52:14.206Z,34.73
2018-12-30T08:54:21.557Z,34.78
2018-12-30T08:56:28.695Z,34.84
2018-12-30T08:58:35.888Z,34.59
2018-12-30T09:00:43.422Z,34.26
2018-12-30T09:02:50.544Z,33.97
2018-12-30T09:04:58.286Z,33.57
2018-12-30T09:07:05.210Z,33.59
2018-12-30T09:09:12.773Z,33.36
2018-12-30T09:11:20.061Z,34.27
2018-12-30T09:13:27.186Z,32.82
2018-12-30T09:15:34.762Z,33.17
2018-12-30T09:17:41.732Z,33.94
2018-12-30T09:19:48.704Z,34.07
2018-12-30T09:21:55.876Z,34.16
2018-12-30T09:24:03.492Z,33.74
2018-12-30T09:26:10.561Z,34.41
2018-12-30T09:28:17.719Z,34.21
2018-12-30T09:30:24.749Z,34.58
2018-12-30T09:32:31.921Z,34.50
2018-12-30T09:34:38.965Z,34.84
2018-12-30T09:36:46.060Z,34.35
2018-12-30T09:38:53.463Z,34.41
2018-12-30T09:41:00.408Z,34.41
2018-12-30T09:43:07.431Z,34.28
2018-12-30T09:45:14.785Z,34.05
2018-12-30T09:47:21.862Z,33.76
2018-12-30T09:49:29.104Z,33.61
2018-12-30T09:51:36.619Z,33.39
2018-12-30T09:53:45.284Z,32.76
2018-12-30T09:55:52.511Z,33.63
2018-12-30T09:57:59.584Z,32.82
2018-12-30T10:00:06.922Z,33.90
2018-12-30T10:02:15.219Z,33.92
2018-12-30T10:04:22.504Z,33.72
2018-12-30T10:06:29.861Z,33.96
2018-12-30T10:08:36.942Z,34.46
2018-12-30T10:10:44.136Z,34.02
2018-12-30T10:12:51.426Z,34.30
2018-12-30T10:15:05.470Z,34.44
2018-12-30T10:17:08.300Z,34.31
2018-12-30T10:19:15.617Z,34.15
2018-12-30T10:21:22.895Z,34.48
2018-12-30T10:23:29.947Z,34.25
2018-12-30T10:25:37.286Z,34.44
2018-12-30T10:27:44.295Z,34.42
2018-12-30T10:29:51.443Z,35.02
2018-12-30T10:31:58.758Z,35.03
2018-12-30T10:34:05.801Z,34.43
2018-12-30T10:36:13.253Z,34.36
2018-12-30T10:38:20.563Z,33.98
2018-12-30T10:40:28.486Z,33.56
2018-12-30T10:42:35.816Z,33.39
2018-12-30T10:44:42.974Z,33.46
2018-12-30T10:46:50.070Z,33.50
2018-12-30T10:48:57.258Z,32.99
2018-12-30T10:51:04.499Z,33.01
2018-12-30T10:53:11.574Z,32.41
2018-12-30T10:55:18.884Z,32.54
2018-12-30T10:57:26.133Z,33.15
2018-12-30T10:59:33.215Z,32.23
2018-12-30T11:01:40.503Z,32.35
2018-12-30T11:03:48.010Z,32.04
2018-12-30T11:05:55.208Z,33.61
2018-12-30T11:08:02.222Z,33.20
2018-12-30T11:10:09.546Z,32.97
2018-12-30T11:12:16.736Z,33.51
2018-12-30T11:14:23.840Z,33.60
2018-12-30T11:16:31.010Z,33.90
2018-12-30T11:18:38.166Z,33.81
2018-12-30T11:20:45.269Z,34.19
2018-12-30T11:22:52.461Z,34.25
2018-12-30T11:24:59.699Z,34.52
2018-12-30T11:27:07.193Z,33.82
2018-12-30T11:29:14.468Z,34.41
2018-12-30T11:31:21.643Z,34.34
2018-12-30T11:33:28.758Z,34.49
2018-12-30T11:35:36.426Z,34.56
2018-12-30T11:37:43.495Z,34.16
2018-12-30T11:39:50.712Z,34.42
2018-12-30T11:41:57.980Z,34.94
2018-12-30T11:44:05.058Z,33.70
2018-12-30T11:46:12.921Z,33.49
2018-12-30T11:48:19.875Z,34.07
2018-12-30T11:50:27.137Z,33.45
2018-12-30T11:52:34.495Z,33.26
2018-12-30T11:54:41.815Z,34.05
2018-12-30T11:56:49.056Z,33.60
2018-12-30T11:58:56.328Z,34.22
2018-12-30T12:01:03.535Z,34.41
2018-12-30T12:03:10.520Z,33.96
2018-12-30T12:05:17.980Z,34.31
2018-12-30T12:07:25.581Z,34.34
2018-12-30T12:09:32.891Z,33.59
2018-12-30T12:11:40.092Z,33.97
2018-12-30T12:13:47.477Z,33.26
2018-12-30T12:15:54.563Z,34.46
2018-12-30T12:18:01.757Z,32.43
2018-12-30T12:20:10.102Z,32.83
2018-12-30T12:22:17.234Z,33.67
2018-12-30T12:24:24.727Z,33.75
2018-12-30T12:26:31.812Z,33.65
2018-12-30T12:28:40.020Z,33.78
2018-12-30T12:30:47.025Z,33.53
2018-12-30T12:32:54.266Z,34.51
2018-12-30T12:35:02.387Z,34.49
2018-12-30T12:37:10.388Z,33.98
2018-12-30T12:39:17.501Z,33.57
2018-12-30T12:41:24.853Z,33.59
2018-12-30T12:43:32.155Z,34.03
2018-12-30T12:45:39.303Z,33.79
2018-12-30T12:47:46.485Z,33.76
2018-12-30T12:49:53.738Z,34.14
2018-12-30T12:52:01.135Z,32.31
2018-12-30T12:54:08.179Z,33.09
2018-12-30T12:56:16.225Z,32.25
2018-12-30T12:58:23.385Z,32.31
2018-12-30T13:00:30.626Z,32.61
2018-12-30T13:02:37.931Z,33.90
2018-12-30T13:04:44.857Z,32.49
2018-12-30T13:06:52.069Z,32.34
2018-12-30T13:08:59.464Z,32.13
2018-12-30T13:11:06.432Z,31.99
2018-12-30T13:13:13.719Z,32.16
2018-12-30T13:15:21.021Z,32.51
2018-12-30T13:17:28.067Z,31.88
2018-12-30T13:19:35.255Z,33.07
2018-12-30T13:21:42.576Z,31.74
2018-12-30T13:23:49.697Z,32.18
2018-12-30T13:25:56.889Z,32.54
2018-12-30T13:28:03.800Z,31.50
2018-12-30T13:30:11.100Z,32.17
2018-12-30T13:32:18.251Z,31.68
2018-12-30T13:34:25.545Z,33.07
2018-12-30T13:36:32.601Z,31.49
2018-12-30T13:38:39.822Z,31.38
2018-12-30T13:40:47.088Z,31.45
2018-12-30T13:42:55.239Z,31.19
2018-12-30T13:45:02.533Z,32.75
2018-12-30T13:47:09.990Z,33.45
2018-12-30T13:49:17.226Z,33.30
2018-12-30T13:51:24.314Z,33.44
2018-12-30T13:53:31.668Z,33.65
2018-12-30T13:55:39.105Z,33.27
2018-12-30T13:57:46.040Z,34.11
2018-12-30T13:59:53.390Z,34.35
2018-12-30T14:02:00.751Z,34.25
2018-12-30T14:04:08.197Z,34.06
2018-12-30T14:06:15.508Z,33.44
2018-12-30T14:08:22.890Z,33.75
2018-12-30T14:10:30.402Z,33.36
2018-12-30T14:12:43.374Z,32.97
2018-12-30T14:14:50.599Z,33.47
2018-12-30T14:16:57.683Z,32.57
2018-12-30T14:19:04.874Z,32.87
2018-12-30T14:21:12.136Z,32.30
2018-12-30T14:23:19.165Z,31.98
2018-12-30T14:25:29.210Z,32.12
2018-12-30T14:27:36.422Z,33.19
2018-12-30T14:29:43.983Z,33.29
2018-12-30T14:31:51.205Z,33.82
2018-12-30T14:33:58.387Z,33.82
2018-12-30T14:36:05.603Z,33.83
2018-12-30T14:38:13.026Z,34.14
2018-12-30T14:40:20.212Z,34.19
2018-12-30T14:42:27.461Z,34.04
2018-12-30T14:44:35.129Z,33.64
2018-12-30T14:46:42.079Z,33.78
2018-12-30T14:48:49.738Z,33.47
2018-12-30T14:50:56.943Z,33.42
2018-12-30T14:53:04.245Z,32.33
2018-12-30T14:55:11.979Z,32.19
2018-12-30T14:57:19.214Z,32.13
2018-12-30T14:59:27.216Z,32.06
2018-12-30T15:01:34.460Z,33.31
2018-12-30T15:03:41.897Z,33.42
2018-12-30T15:05:48.998Z,33.03
2018-12-30T15:07:56.185Z,33.15
2018-12-30T15:10:03.979Z,33.20
2018-12-30T15:12:11.284Z,33.16
2018-12-30T15:14:19.055Z,33.68
2018-12-30T15:16:26.462Z,33.94
2018-12-30T15:18:33.708Z,33.63
2018-12-30T15:20:40.848Z,34.13
2018-12-30T15:22:48.067Z,33.69
2018-12-30T15:24:55.325Z,34.36
2018-12-30T15:27:02.579Z,34.82
2018-12-30T15:29:09.627Z,34.34
2018-12-30T21:13:56.999Z,36.82
2018-12-30T21:16:11.222Z,37.42
2018-12-30T21:18:21.052Z,38.56
2018-12-30T21:20:30.260Z,38.73
2018-12-30T21:22:42.679Z,38.68
2018-12-30T21:24:49.921Z,37.86
2018-12-30T21:26:58.162Z,37.37
2018-12-30T21:31:48.468Z,36.71
2018-12-30T21:33:54.416Z,36.22
2018-12-30T21:36:01.933Z,36.13
2018-12-30T21:38:13.931Z,35.52
2018-12-30T21:40:22.253Z,35.01
2018-12-30T21:42:29.437Z,34.94
2018-12-30T21:44:43.363Z,34.57
2018-12-30T21:47:19.954Z,34.59
2018-12-30T21:49:07.467Z,34.00
2018-12-30T21:51:14.906Z,33.47
2018-12-30T21:53:22.448Z,32.63
2018-12-30T21:55:32.754Z,33.68
2018-12-30T21:57:50.498Z,34.00
2018-12-30T21:59:58.116Z,33.56
2018-12-30T22:02:08.331Z,34.08
2018-12-30T22:04:26.113Z,34.10
2018-12-30T22:06:39.400Z,34.17
2018-12-30T22:08:53.213Z,34.31
2018-12-30T22:11:16.931Z,34.20
2018-12-30T22:13:24.454Z,34.38
2018-12-30T22:15:40.594Z,34.69
2018-12-30T22:20:23.149Z,34.48
2018-12-30T22:22:35.532Z,34.01
2018-12-30T22:24:51.184Z,33.85
2018-12-30T22:27:03.032Z,33.65
2018-12-30T22:29:13.779Z,33.03
2018-12-30T22:31:28.401Z,33.30
2018-12-30T22:33:36.080Z,32.43
2018-12-30T22:35:46.533Z,32.63
2018-12-30T22:37:57.764Z,32.23
2018-12-30T22:40:33.282Z,32.80
2018-12-30T22:43:14.641Z,33.08
2018-12-30T22:46:09.887Z,33.43
2018-12-30T22:48:29.767Z,33.13
2018-12-30T22:50:43.662Z,33.77
2018-12-30T22:55:36.016Z,34.19
2018-12-30T22:57:54.160Z,34.73
2018-12-30T23:00:36.518Z,33.83
2018-12-30T23:02:53.206Z,35.36
2018-12-30T23:05:35.245Z,35.28
2018-12-30T23:07:53.909Z,35.42
2018-12-30T23:10:06.952Z,36.58
2018-12-30T23:12:28.373Z,36.67
2018-12-30T23:14:38.391Z,36.41
2018-12-30T23:16:56.541Z,35.47
2018-12-30T23:19:22.441Z,35.72
2018-12-30T23:24:28.232Z,36.37
2018-12-30T23:27:28.254Z,36.59
2018-12-30T23:29:24.173Z,36.63
2018-12-30T23:34:04.182Z,36.61
2018-12-30T23:36:27.633Z,36.78
2018-12-30T23:39:02.285Z,36.59
2018-12-30T23:41:15.661Z,35.70
2018-12-30T23:43:25.699Z,35.13
2018-12-30T23:45:36.406Z,34.60
2018-12-30T23:47:56.700Z,34.38
2018-12-30T23:50:10.928Z,33.86
2018-12-30T23:52:21.290Z,32.61
2018-12-30T23:54:39.647Z,34.01
2018-12-30T23:56:50.306Z,34.77
2018-12-30T23:59:08.517Z,34.76
